Aeroporto :
LOGIN :

Iscrizione | Disclaimer

   EN    FR    IT 

 










Sommario :    VFR   VFR Marginale   IFR   IFR Intensivo   IFR Molto Intensivo
Visibilità : 
Base nubi : 
>= 8 km
>= 3000ft
5 / 8 km
1000 / 3000 ft
1500m / 5 km
500 / 1000 ft
800 / 1500m
200 / 500 ft
< 800m
< 200 ft
Simboli :   Temporali  Nebbia  Neve Forte  Precipitazioni Forti  Vento > 20 kt
SIGMETs :   Varie  Temporali  Ghiacco  Turbolenza  Onda orograficha  Ceneri Vulcaniche






- Altitudine del aeroporto : 1 ft


EGCK - Caernarfon

ULTIMO METAR :
  • 211250Z 01008KT 9999 BKN036 12/09 Q1023

METARs OBSOLETI :
  • 211220Z VRB03KT 9999 FEW024 BKN039 12/08 Q1024
  • 211150Z 04007KT 9999 FEW024 BKN035 12/08 Q1024
  • 211120Z 04007KT 9999 FEW015 SCT020 BKN035 12/08 Q1024
  • 211050Z 04007KT 9999 FEW017 BKN039 12/08 Q1023
  • 211020Z VRB06KT 9999 FEW016 BKN037 11/08 Q1023

TAF TAF EGCK
Valido dal 21 a 12 ore il 21 a 21 ore UTC


211103Z 2112/2121 01006KT 9999 SCT025



MetMap, La meteo Aeronautica in un colpo d'occhio ! - Copyright ORBIFLY Dicembre 2007 - Disclaimer

ORBIFLY MET'MAP TEAM :

Programmazione e sviluppo : Alexandra Zaïnal
Concezione e sviluppo : Baudouin d'Aumeries
Co-Programmazione e sviluppo : Marc-Olivier Méhu
Supporto tecnico e logistico : Manuel Goepfert
Aiuto per la traduzione : Arnaldo La Scala

Contatto : metmap@orbifly.com




FONTI E CREDITI :

   NOAA